Time;durP1;ratioP1;P1;durP2;ratioP2;P2;SDS_P1;SDS_P2;PMS_P1;PMS_P2;Temp;Humidity;BMP_temperature;BMP_pressure;BME280_temperature;BME280_humidity;BME280_pressure;Samples;Min_cycle;Max_cycle;Signal;HPM_P1;HPM_P2
2023/09/12 00:00:48;;;;;;;35.50;20.33;;;;;;;;;;2086587;28;20104;-74
2023/09/12 00:02:09;;;;;;;37.63;21.63;;;;;;;;;;2092247;28;20066;-74
2023/09/12 00:03:30;;;;;;;36.65;21.50;;;;;;;;;;2085772;28;20083;-74
2023/09/12 00:04:51;;;;;;;40.55;21.42;;;;;;;;;;2089239;28;20461;-74
2023/09/12 00:06:12;;;;;;;42.67;24.13;;;;;;;;;;2090271;28;20248;-74
2023/09/12 00:07:34;;;;;;;41.15;21.30;;;;;;;;;;2090665;28;20075;-74
2023/09/12 00:08:55;;;;;;;37.78;22.20;;;;;;;;;;2083164;28;20071;-75
2023/09/12 00:10:16;;;;;;;39.83;21.80;;;;;;;;;;2080714;28;20118;-75
2023/09/12 00:11:37;;;;;;;39.15;21.75;;;;;;;;;;2085051;28;20443;-74
2023/09/12 00:13:00;;;;;;;42.13;22.42;;;;;;;;;;2090646;28;20033;-74
2023/09/12 00:14:21;;;;;;;38.58;21.42;;;;;;;;;;2082398;28;20079;-74
2023/09/12 00:15:42;;;;;;;39.67;21.70;;;;;;;;;;2089625;28;20040;-74
2023/09/12 00:17:03;;;;;;;37.88;21.35;;;;;;;;;;2091512;28;20040;-73
2023/09/12 00:18:24;;;;;;;42.53;21.67;;;;;;;;;;2097417;28;20028;-73
2023/09/12 00:19:45;;;;;;;38.72;21.65;;;;;;;;;;2096450;28;20032;-74
2023/09/12 00:21:06;;;;;;;42.72;22.40;;;;;;;;;;2096579;28;20356;-74
2023/09/12 00:22:27;;;;;;;43.95;22.50;;;;;;;;;;2093808;28;20041;-73
2023/09/12 00:23:48;;;;;;;41.58;20.80;;;;;;;;;;2084399;28;20034;-74
2023/09/12 00:25:09;;;;;;;47.25;22.27;;;;;;;;;;2103109;28;20035;-74
2023/09/12 00:26:30;;;;;;;40.10;22.63;;;;;;;;;;2097105;28;20403;-73
2023/09/12 00:27:51;;;;;;;42.60;22.58;;;;;;;;;;2097433;28;20066;-73
2023/09/12 00:29:12;;;;;;;38.72;21.70;;;;;;;;;;2092872;28;20051;-73
2023/09/12 00:30:33;;;;;;;45.00;22.55;;;;;;;;;;2094228;28;20071;-74
2023/09/12 00:31:54;;;;;;;43.00;20.90;;;;;;;;;;2102559;28;20032;-74
2023/09/12 00:33:15;;;;;;;41.75;20.50;;;;;;;;;;2088715;28;20508;-73
2023/09/12 00:34:36;;;;;;;40.35;21.15;;;;;;;;;;2096853;28;20029;-73
2023/09/12 00:35:58;;;;;;;;;;;;;;;;;;2103055;28;20048;-73
2023/09/12 00:37:18;;;;;;;40.50;21.17;;;;;;;;;;2104036;28;19912;-74
2023/09/12 00:38:39;;;;;;;40.03;21.83;;;;;;;;;;2100101;28;20483;-73
2023/09/12 00:40:00;;;;;;;42.67;22.20;;;;;;;;;;2095922;28;20056;-73
2023/09/12 00:41:21;;;;;;;44.17;21.92;;;;;;;;;;2089189;28;20028;-74
2023/09/12 00:42:42;;;;;;;41.47;21.58;;;;;;;;;;2088734;28;20033;-74
2023/09/12 00:44:03;;;;;;;33.38;19.48;;;;;;;;;;2093281;28;20116;-73
2023/09/12 00:45:24;;;;;;;39.28;21.25;;;;;;;;;;2096655;28;20036;-74
2023/09/12 00:46:46;;;;;;;41.58;20.13;;;;;;;;;;2079728;28;20104;-74
2023/09/12 00:48:07;;;;;;;42.22;20.33;;;;;;;;;;2085690;28;20040;-74
2023/09/12 00:49:29;;;;;;;38.17;19.65;;;;;;;;;;2087308;28;20021;-74
2023/09/12 00:50:51;;;;;;;39.65;20.95;;;;;;;;;;2090786;28;20036;-74
2023/09/12 00:52:12;;;;;;;50.45;21.83;;;;;;;;;;2094239;28;20028;-74
2023/09/12 00:53:33;;;;;;;40.60;20.83;;;;;;;;;;2103835;28;20036;-74
2023/09/12 00:54:55;;;;;;;45.03;19.95;;;;;;;;;;2083946;28;21443;-74
2023/09/12 00:56:16;;;;;;;40.67;21.65;;;;;;;;;;2087936;28;20040;-74
2023/09/12 00:57:37;;;;;;;39.20;18.98;;;;;;;;;;2084296;28;20041;-74
2023/09/12 00:58:58;;;;;;;35.35;20.50;;;;;;;;;;2091593;28;20083;-74
2023/09/12 01:00:19;;;;;;;40.80;20.45;;;;;;;;;;2085970;28;20086;-74
2023/09/12 01:01:40;;;;;;;39.10;20.08;;;;;;;;;;2089861;28;20028;-74
2023/09/12 01:03:01;;;;;;;41.42;21.27;;;;;;;;;;2093271;28;20075;-75
2023/09/12 01:04:21;;;;;;;44.97;20.95;;;;;;;;;;2085151;28;20110;-74
2023/09/12 01:05:43;;;;;;;39.70;19.65;;;;;;;;;;2082199;28;20473;-74
2023/09/12 01:07:04;;;;;;;45.67;20.98;;;;;;;;;;2088276;28;20498;-74
2023/09/12 01:08:25;;;;;;;44.88;21.02;;;;;;;;;;2092793;28;20036;-74
2023/09/12 01:09:46;;;;;;;40.50;20.98;;;;;;;;;;2095414;28;20360;-74
2023/09/12 01:11:08;;;;;;;44.30;20.70;;;;;;;;;;2082956;28;20037;-74
2023/09/12 01:12:29;;;;;;;44.80;20.58;;;;;;;;;;2084061;28;20041;-74
2023/09/12 01:13:50;;;;;;;36.80;19.90;;;;;;;;;;2092979;28;20028;-74
2023/09/12 01:15:13;;;;;;;39.28;19.20;;;;;;;;;;2093689;28;20040;-74
2023/09/12 01:16:34;;;;;;;41.03;20.48;;;;;;;;;;2084616;28;20041;-74
2023/09/12 01:17:55;;;;;;;43.53;20.40;;;;;;;;;;2091290;28;20041;-75
2023/09/12 01:19:18;;;;;;;39.00;21.27;;;;;;;;;;2093670;28;20032;-74
2023/09/12 01:20:38;;;;;;;;;;;;;;;;;;2096993;28;20432;-74
2023/09/12 01:22:11;;;;;;;35.90;19.33;;;;;;;;;;2088665;28;19913;-74
2023/09/12 01:23:35;;;;;;;42.55;21.58;;;;;;;;;;2093695;28;20036;-74
2023/09/12 01:25:22;;;;;;;39.40;19.85;;;;;;;;;;2083503;28;20033;-75
2023/09/12 01:27:01;;;;;;;37.35;19.00;;;;;;;;;;2088230;28;20072;-74
2023/09/12 01:28:24;;;;;;;39.33;20.77;;;;;;;;;;2082112;28;20041;-74
2023/09/12 01:29:45;;;;;;;39.55;20.17;;;;;;;;;;2092005;28;20037;-74
2023/09/12 01:31:07;;;;;;;36.40;20.15;;;;;;;;;;2088593;28;20016;-74
2023/09/12 01:32:29;;;;;;;42.40;21.60;;;;;;;;;;2095056;28;20032;-74
2023/09/12 01:33:54;;;;;;;40.10;20.10;;;;;;;;;;2084427;28;20053;-74
2023/09/12 01:35:15;;;;;;;39.75;21.27;;;;;;;;;;2091659;28;20028;-74
2023/09/12 01:36:36;;;;;;;42.22;22.70;;;;;;;;;;2086198;28;20095;-74
2023/09/12 01:37:57;;;;;;;42.13;20.95;;;;;;;;;;2090485;28;20048;-74
2023/09/12 01:39:18;;;;;;;45.65;22.92;;;;;;;;;;2084797;28;20110;-74
2023/09/12 01:40:43;;;;;;;39.95;21.92;;;;;;;;;;2092268;28;20496;-74
2023/09/12 01:42:05;;;;;;;36.40;21.05;;;;;;;;;;2095535;28;20040;-74
2023/09/12 01:43:26;;;;;;;35.13;19.67;;;;;;;;;;2095705;28;20041;-74
2023/09/12 01:44:50;;;;;;;40.95;20.73;;;;;;;;;;2088680;28;20165;-74
2023/09/12 01:46:11;;;;;;;37.85;20.90;;;;;;;;;;2093672;28;20037;-74
2023/09/12 01:47:33;;;;;;;39.25;20.17;;;;;;;;;;2087720;28;20527;-74
2023/09/12 01:48:55;;;;;;;35.53;20.50;;;;;;;;;;2096005;28;20036;-74
2023/09/12 01:50:16;;;;;;;39.88;21.52;;;;;;;;;;2097076;28;20488;-74
2023/09/12 01:51:38;;;;;;;34.38;19.50;;;;;;;;;;2099569;28;20037;-74
2023/09/12 01:52:59;;;;;;;39.17;21.03;;;;;;;;;;2100785;28;20020;-74
2023/09/12 01:54:21;;;;;;;32.60;19.52;;;;;;;;;;2086325;28;20033;-74
2023/09/12 01:55:43;;;;;;;41.65;19.95;;;;;;;;;;2081557;28;20025;-74
2023/09/12 01:57:04;;;;;;;37.15;20.10;;;;;;;;;;2090666;28;20036;-74
2023/09/12 01:58:25;;;;;;;37.30;21.10;;;;;;;;;;2097062;28;20561;-74
2023/09/12 01:59:48;;;;;;;39.50;19.83;;;;;;;;;;2098188;28;20062;-77
2023/09/12 02:01:09;;;;;;;38.22;20.15;;;;;;;;;;2092919;28;20033;-77
2023/09/12 02:02:30;;;;;;;36.85;19.35;;;;;;;;;;2085286;28;20033;-77
2023/09/12 02:03:51;;;;;;;38.63;20.05;;;;;;;;;;2081665;28;20350;-77
2023/09/12 02:05:18;;;;;;;43.35;20.40;;;;;;;;;;2089919;28;20095;-77
2023/09/12 02:06:39;;;;;;;40.38;22.40;;;;;;;;;;2096430;28;20028;-78
2023/09/12 02:08:01;;;;;;;40.30;21.27;;;;;;;;;;2093982;28;20041;-77
2023/09/12 02:09:22;;;;;;;44.28;21.85;;;;;;;;;;2093443;28;20094;-77
2023/09/12 02:10:43;;;;;;;43.17;22.88;;;;;;;;;;2094024;28;20301;-77
2023/09/12 02:12:04;;;;;;;42.85;21.88;;;;;;;;;;2095330;28;20036;-77
2023/09/12 02:13:25;;;;;;;40.22;21.88;;;;;;;;;;2092792;28;20036;-76
2023/09/12 02:14:45;;;;;;;40.28;20.77;;;;;;;;;;2085353;28;20037;-77
2023/09/12 02:16:06;;;;;;;40.58;20.98;;;;;;;;;;2090588;28;20178;-77
2023/09/12 02:17:27;;;;;;;40.97;20.40;;;;;;;;;;2084451;28;20420;-77
2023/09/12 02:18:48;;;;;;;43.97;21.95;;;;;;;;;;2082371;28;20075;-77
2023/09/12 02:20:09;;;;;;;40.40;20.67;;;;;;;;;;2094690;28;20091;-75
2023/09/12 02:21:30;;;;;;;43.58;22.60;;;;;;;;;;2091042;28;20514;-78
2023/09/12 02:22:51;;;;;;;42.33;22.25;;;;;;;;;;2095375;28;20055;-77
2023/09/12 02:24:12;;;;;;;40.30;20.45;;;;;;;;;;2100521;28;20040;-78
2023/09/12 02:25:33;;;;;;;45.40;21.55;;;;;;;;;;2105179;28;20360;-78
2023/09/12 02:26:54;;;;;;;40.53;21.58;;;;;;;;;;2091613;28;20033;-77
2023/09/12 02:28:15;;;;;;;40.92;21.75;;;;;;;;;;2084995;28;20074;-77
2023/09/12 02:29:37;;;;;;;38.10;20.63;;;;;;;;;;2087580;28;20029;-76
2023/09/12 02:30:58;;;;;;;;;;;;;;;;;;2080050;28;20742;-76
2023/09/12 02:32:18;;;;;;;46.22;21.92;;;;;;;;;;2093423;28;19970;-77
2023/09/12 02:33:40;;;;;;;37.38;20.90;;;;;;;;;;2091753;28;20223;-77
2023/09/12 02:35:01;;;;;;;38.40;20.65;;;;;;;;;;2092716;28;20091;-76
2023/09/12 02:36:21;;;;;;;43.70;21.13;;;;;;;;;;2091259;28;20038;-77
2023/09/12 02:37:42;;;;;;;36.33;19.33;;;;;;;;;;2084509;28;20070;-77
2023/09/12 02:39:03;;;;;;;38.78;21.45;;;;;;;;;;2083070;28;20079;-77
2023/09/12 02:40:24;;;;;;;42.80;22.15;;;;;;;;;;2079787;28;20033;-76
2023/09/12 02:41:45;;;;;;;37.28;19.20;;;;;;;;;;2081031;28;20480;-77
2023/09/12 02:43:06;;;;;;;38.20;19.58;;;;;;;;;;2091451;28;20473;-76
2023/09/12 02:44:27;;;;;;;35.83;20.27;;;;;;;;;;2086067;28;20043;-77
2023/09/12 02:45:48;;;;;;;36.75;20.55;;;;;;;;;;2081136;28;20033;-78
2023/09/12 02:47:09;;;;;;;36.15;20.33;;;;;;;;;;2082356;28;20495;-77
2023/09/12 02:48:30;;;;;;;43.50;21.63;;;;;;;;;;2082451;28;20046;-77
2023/09/12 02:49:51;;;;;;;46.13;22.25;;;;;;;;;;2084468;28;20102;-76
2023/09/12 02:51:12;;;;;;;39.03;20.92;;;;;;;;;;2082954;28;20033;-77
2023/09/12 02:52:33;;;;;;;40.47;21.17;;;;;;;;;;2083334;28;20037;-78
2023/09/12 02:53:53;;;;;;;49.17;22.15;;;;;;;;;;2083622;28;20110;-78
2023/09/12 02:55:14;;;;;;;47.25;22.58;;;;;;;;;;2090874;28;20074;-77
2023/09/12 02:56:35;;;;;;;43.85;21.33;;;;;;;;;;2083981;28;20555;-77
2023/09/12 02:57:56;;;;;;;41.50;21.90;;;;;;;;;;2084648;28;20052;-77
2023/09/12 02:59:18;;;;;;;44.70;22.45;;;;;;;;;;2091974;28;20033;-77
2023/09/12 03:00:40;;;;;;;45.20;21.67;;;;;;;;;;2081707;28;20029;-76
2023/09/12 03:02:01;;;;;;;42.72;20.73;;;;;;;;;;2089975;28;20029;-78
2023/09/12 03:03:22;;;;;;;36.20;19.25;;;;;;;;;;2090541;28;20033;-77
2023/09/12 03:04:43;;;;;;;39.38;19.27;;;;;;;;;;2090107;28;20044;-77
2023/09/12 03:06:04;;;;;;;38.22;18.80;;;;;;;;;;2085772;28;20040;-77
2023/09/12 03:07:25;;;;;;;33.40;18.65;;;;;;;;;;2091729;28;20033;-77
2023/09/12 03:08:47;;;;;;;32.58;18.40;;;;;;;;;;2095693;28;20495;-77
2023/09/12 03:10:08;;;;;;;34.90;18.80;;;;;;;;;;2085501;28;20044;-75
2023/09/12 03:11:29;;;;;;;31.77;17.90;;;;;;;;;;2085583;28;20037;-75
2023/09/12 03:12:50;;;;;;;32.50;17.80;;;;;;;;;;2084899;28;20546;-74
2023/09/12 03:14:11;;;;;;;29.63;17.00;;;;;;;;;;2089444;28;20040;-74
2023/09/12 03:15:35;;;;;;;31.05;16.55;;;;;;;;;;2086854;28;20032;-73
2023/09/12 03:16:56;;;;;;;35.40;17.05;;;;;;;;;;2081144;28;20064;-74
2023/09/12 03:18:17;;;;;;;34.40;17.98;;;;;;;;;;2086808;28;20436;-74
2023/09/12 03:19:38;;;;;;;36.67;17.05;;;;;;;;;;2088999;28;20098;-75
2023/09/12 03:21:00;;;;;;;37.90;18.77;;;;;;;;;;2087673;28;20029;-74
2023/09/12 03:22:21;;;;;;;;;;;;;;;;;;2088073;28;20044;-74
2023/09/12 03:23:42;;;;;;;44.17;19.40;;;;;;;;;;2092097;28;19916;-74
2023/09/12 03:25:03;;;;;;;36.80;18.52;;;;;;;;;;2093646;28;20108;-75
2023/09/12 03:26:24;;;;;;;35.58;19.60;;;;;;;;;;2085164;28;20033;-74
2023/09/12 03:27:45;;;;;;;34.67;17.92;;;;;;;;;;2091982;28;20483;-73
2023/09/12 03:29:06;;;;;;;39.28;20.65;;;;;;;;;;2085392;28;20084;-75
2023/09/12 03:30:27;;;;;;;37.58;18.83;;;;;;;;;;2092892;28;20404;-75
2023/09/12 03:31:48;;;;;;;31.80;17.77;;;;;;;;;;2094760;28;20039;-75
2023/09/12 03:33:09;;;;;;;31.15;15.50;;;;;;;;;;2097233;28;20488;-74
2023/09/12 03:34:30;;;;;;;25.02;14.45;;;;;;;;;;2093636;28;21449;-74
2023/09/12 03:35:51;;;;;;;23.27;13.98;;;;;;;;;;2088943;28;20028;-74
2023/09/12 03:37:11;;;;;;;23.75;12.95;;;;;;;;;;2099081;28;20492;-74
2023/09/12 03:38:33;;;;;;;19.15;13.32;;;;;;;;;;2085573;28;20107;-74
2023/09/12 03:39:54;;;;;;;22.37;13.10;;;;;;;;;;2084900;28;20443;-75
2023/09/12 03:41:14;;;;;;;24.40;13.90;;;;;;;;;;2090918;28;20035;-74
2023/09/12 03:42:35;;;;;;;26.50;12.93;;;;;;;;;;2087498;28;20029;-75
2023/09/12 03:43:56;;;;;;;23.88;13.43;;;;;;;;;;2091251;28;20387;-74
2023/09/12 03:45:17;;;;;;;30.08;14.68;;;;;;;;;;2087953;28;20495;-74
2023/09/12 03:46:38;;;;;;;27.33;15.18;;;;;;;;;;2087040;28;20037;-74
2023/09/12 03:47:59;;;;;;;24.73;13.50;;;;;;;;;;2085428;28;20060;-75
2023/09/12 03:49:20;;;;;;;26.58;14.18;;;;;;;;;;2094939;28;20051;-73
2023/09/12 03:50:41;;;;;;;23.50;14.25;;;;;;;;;;2084207;28;20436;-74
2023/09/12 03:52:02;;;;;;;29.40;15.60;;;;;;;;;;2094094;28;20086;-74
2023/09/12 03:53:23;;;;;;;31.92;16.83;;;;;;;;;;2083570;28;20542;-74
2023/09/12 03:54:44;;;;;;;29.15;15.98;;;;;;;;;;2085470;28;20070;-74
2023/09/12 03:56:05;;;;;;;31.13;17.45;;;;;;;;;;2093497;28;20403;-74
2023/09/12 03:57:26;;;;;;;30.55;16.88;;;;;;;;;;2085286;28;20071;-74
2023/09/12 03:58:47;;;;;;;22.55;14.30;;;;;;;;;;2091752;28;20082;-75
2023/09/12 04:00:08;;;;;;;25.08;14.57;;;;;;;;;;2084819;28;20087;-74
2023/09/12 04:01:29;;;;;;;27.08;15.70;;;;;;;;;;2091485;28;21588;-75
2023/09/12 04:02:50;;;;;;;29.23;16.45;;;;;;;;;;2085388;28;20528;-74
2023/09/12 04:04:11;;;;;;;33.08;17.60;;;;;;;;;;2089096;28;20086;-75
2023/09/12 04:05:32;;;;;;;36.00;17.55;;;;;;;;;;2086568;28;20102;-75
2023/09/12 04:06:53;;;;;;;39.20;20.02;;;;;;;;;;2081497;28;20455;-75
2023/09/12 04:08:14;;;;;;;31.10;17.85;;;;;;;;;;2086719;28;20034;-75
2023/09/12 04:09:35;;;;;;;36.55;18.65;;;;;;;;;;2090074;28;20448;-74
2023/09/12 04:10:55;;;;;;;36.97;18.13;;;;;;;;;;2090832;28;20086;-75
2023/09/12 04:12:16;;;;;;;34.92;17.77;;;;;;;;;;2083820;28;20034;-74
2023/09/12 04:13:37;;;;;;;31.73;17.92;;;;;;;;;;2085308;28;20033;-74
2023/09/12 04:14:58;;;;;;;37.05;18.45;;;;;;;;;;2084315;28;20021;-75
2023/09/12 04:16:19;;;;;;;38.05;18.45;;;;;;;;;;2089063;28;20021;-74
2023/09/12 04:17:40;;;;;;;34.33;18.15;;;;;;;;;;2098281;28;20032;-74
2023/09/12 04:19:01;;;;;;;39.67;19.17;;;;;;;;;;2093276;28;20086;-74
2023/09/12 04:20:22;;;;;;;35.90;19.08;;;;;;;;;;2094283;28;20120;-74
2023/09/12 04:21:43;;;;;;;34.25;19.60;;;;;;;;;;2086480;28;20041;-74
2023/09/12 04:23:04;;;;;;;31.58;18.75;;;;;;;;;;2082892;28;20112;-74
2023/09/12 04:24:25;;;;;;;35.63;18.55;;;;;;;;;;2093116;28;20039;-74
2023/09/12 04:25:46;;;;;;;34.95;18.95;;;;;;;;;;2094652;28;20044;-74
2023/09/12 04:27:07;;;;;;;36.10;18.13;;;;;;;;;;2088789;28;20037;-74
2023/09/12 04:28:28;;;;;;;40.78;19.23;;;;;;;;;;2086673;28;20415;-74
2023/09/12 04:29:48;;;;;;;35.88;18.10;;;;;;;;;;2088612;28;20134;-74
2023/09/12 04:31:09;;;;;;;33.47;17.80;;;;;;;;;;2095785;28;20027;-74
2023/09/12 04:32:30;;;;;;;36.63;18.65;;;;;;;;;;2088364;28;20041;-74
2023/09/12 04:33:52;;;;;;;36.42;18.92;;;;;;;;;;2090311;28;20044;-74
2023/09/12 04:35:13;;;;;;;41.70;19.25;;;;;;;;;;2089528;28;20029;-74
2023/09/12 04:36:34;;;;;;;38.95;19.90;;;;;;;;;;2093369;28;20040;-74
2023/09/12 04:37:55;;;;;;;40.13;20.30;;;;;;;;;;2088808;28;20408;-74
2023/09/12 04:39:15;;;;;;;38.55;19.90;;;;;;;;;;2095866;28;20093;-74
2023/09/12 04:40:39;;;;;;;44.38;20.50;;;;;;;;;;2098552;28;20043;-73
2023/09/12 04:42:00;;;;;;;43.38;21.27;;;;;;;;;;2088966;28;20400;-73
2023/09/12 04:43:21;;;;;;;35.90;19.48;;;;;;;;;;2080570;28;20037;-74
2023/09/12 04:44:42;;;;;;;40.25;20.75;;;;;;;;;;2080960;28;20497;-74
2023/09/12 04:46:06;;;;;;;35.63;19.95;;;;;;;;;;2085214;28;20041;-74
2023/09/12 04:47:27;;;;;;;43.97;22.40;;;;;;;;;;2093042;28;20040;-74
2023/09/12 04:48:48;;;;;;;41.17;21.58;;;;;;;;;;2083685;28;20048;-74
2023/09/12 04:50:11;;;;;;;55.60;23.80;;;;;;;;;;2093441;28;20399;-74
2023/09/12 04:51:32;;;;;;;52.00;24.35;;;;;;;;;;2094448;28;20041;-75
2023/09/12 04:52:53;;;;;;;46.47;24.00;;;;;;;;;;2087309;28;20486;-74
2023/09/12 04:54:14;;;;;;;47.88;25.35;;;;;;;;;;2088810;28;20036;-74
2023/09/12 04:55:35;;;;;;;52.63;25.10;;;;;;;;;;2089375;28;20028;-75
2023/09/12 04:56:56;;;;;;;49.17;24.33;;;;;;;;;;2084709;28;20725;-75
2023/09/12 04:58:17;;;;;;;53.10;25.15;;;;;;;;;;2088601;28;20041;-75
2023/09/12 04:59:38;;;;;;;45.20;22.83;;;;;;;;;;2094782;28;20029;-75
2023/09/12 05:00:59;;;;;;;48.38;23.83;;;;;;;;;;2082044;28;20029;-75
2023/09/12 05:02:20;;;;;;;40.42;21.38;;;;;;;;;;2091513;28;20090;-74
2023/09/12 05:03:41;;;;;;;41.58;21.40;;;;;;;;;;2098303;28;20506;-74
2023/09/12 05:05:02;;;;;;;46.72;21.75;;;;;;;;;;2086407;28;20025;-75
2023/09/12 05:06:23;;;;;;;46.08;21.08;;;;;;;;;;2094891;28;20085;-73
2023/09/12 05:07:44;;;;;;;41.42;22.17;;;;;;;;;;2086489;28;20045;-73
2023/09/12 05:09:05;;;;;;;44.65;22.27;;;;;;;;;;2093828;28;20106;-73
2023/09/12 05:10:26;;;;;;;50.70;23.42;;;;;;;;;;2084661;28;20444;-74
2023/09/12 05:11:47;;;;;;;44.88;22.17;;;;;;;;;;2082639;28;20071;-74
2023/09/12 05:13:08;;;;;;;49.85;22.60;;;;;;;;;;2095527;28;20041;-74
2023/09/12 05:14:29;;;;;;;39.55;20.73;;;;;;;;;;2087710;28;20033;-74
2023/09/12 05:15:50;;;;;;;42.33;21.95;;;;;;;;;;2085183;28;20396;-74
2023/09/12 05:17:11;;;;;;;41.90;21.13;;;;;;;;;;2086295;28;20083;-75
2023/09/12 05:18:32;;;;;;;46.65;21.98;;;;;;;;;;2091126;28;20181;-74
2023/09/12 05:19:53;;;;;;;42.47;20.58;;;;;;;;;;2088770;28;20485;-75
2023/09/12 05:21:14;;;;;;;45.92;21.70;;;;;;;;;;2095240;28;20066;-74
2023/09/12 05:22:35;;;;;;;43.90;21.35;;;;;;;;;;2085750;28;20033;-74
2023/09/12 05:23:55;;;;;;;41.58;22.95;;;;;;;;;;2095093;28;20032;-74
2023/09/12 05:25:16;;;;;;;47.97;21.92;;;;;;;;;;2096829;28;20045;-75
2023/09/12 05:26:37;;;;;;;42.70;21.05;;;;;;;;;;2086805;28;20032;-74
2023/09/12 05:27:58;;;;;;;41.97;20.48;;;;;;;;;;2090121;28;20036;-75
2023/09/12 05:29:19;;;;;;;40.30;21.60;;;;;;;;;;2092023;28;20029;-75
2023/09/12 05:30:40;;;;;;;45.05;21.25;;;;;;;;;;2089349;28;20032;-74
2023/09/12 05:32:01;;;;;;;45.55;21.27;;;;;;;;;;2090772;28;20404;-75
2023/09/12 05:33:22;;;;;;;35.90;18.57;;;;;;;;;;2086976;28;20037;-74
2023/09/12 05:34:45;;;;;;;37.60;19.10;;;;;;;;;;2091599;28;20037;-75
2023/09/12 05:36:06;;;;;;;43.70;21.73;;;;;;;;;;2086729;28;20095;-75
2023/09/12 05:37:26;;;;;;;41.00;20.77;;;;;;;;;;2082967;28;20405;-72
2023/09/12 05:38:47;;;;;;;45.33;20.27;;;;;;;;;;2083568;28;20041;-72
2023/09/12 05:40:10;;;;;;;40.35;20.83;;;;;;;;;;2090577;28;20492;-72
2023/09/12 05:41:30;;;;;;;38.08;19.73;;;;;;;;;;2086339;28;20071;-72
2023/09/12 05:42:51;;;;;;;35.83;20.02;;;;;;;;;;2090566;28;20036;-72
2023/09/12 05:44:17;;;;;;;37.20;18.95;;;;;;;;;;2086358;28;20104;-72
2023/09/12 05:45:38;;;;;;;38.83;19.35;;;;;;;;;;2096943;28;20024;-73
2023/09/12 05:46:59;;;;;;;39.97;20.65;;;;;;;;;;2097967;28;20028;-73
2023/09/12 05:48:20;;;;;;;39.35;20.33;;;;;;;;;;2084810;28;20091;-73
2023/09/12 05:49:41;;;;;;;39.78;19.30;;;;;;;;;;2092307;28;20037;-73
2023/09/12 05:51:02;;;;;;;37.35;18.55;;;;;;;;;;2088073;28;20037;-72
2023/09/12 05:52:23;;;;;;;36.13;19.77;;;;;;;;;;2086158;28;20033;-73
2023/09/12 05:53:44;;;;;;;37.42;19.83;;;;;;;;;;2093103;28;20028;-73
2023/09/12 05:55:05;;;;;;;34.53;20.02;;;;;;;;;;2097789;28;20024;-73
2023/09/12 05:56:25;;;;;;;40.35;21.45;;;;;;;;;;2085965;28;20457;-72
2023/09/12 05:57:52;;;;;;;35.63;19.77;;;;;;;;;;2085511;28;20082;-73
2023/09/12 05:59:12;;;;;;;38.22;19.95;;;;;;;;;;2093457;28;20066;-72
2023/09/12 06:00:34;;;;;;;44.75;20.52;;;;;;;;;;2087357;28;20075;-72
2023/09/12 06:01:55;;;;;;;38.88;20.23;;;;;;;;;;2087083;28;20087;-73
2023/09/12 06:03:16;;;;;;;42.28;21.20;;;;;;;;;;2087038;28;20143;-72
2023/09/12 06:04:37;;;;;;;41.08;20.00;;;;;;;;;;2095037;28;20491;-73
2023/09/12 06:05:58;;;;;;;41.83;19.95;;;;;;;;;;2086559;28;20025;-73
2023/09/12 06:07:19;;;;;;;42.65;20.85;;;;;;;;;;2079342;28;20026;-72
2023/09/12 06:08:40;;;;;;;39.13;21.10;;;;;;;;;;2092543;28;20369;-72
2023/09/12 06:10:01;;;;;;;43.15;22.92;;;;;;;;;;2088080;28;20379;-72
2023/09/12 06:11:22;;;;;;;41.65;21.92;;;;;;;;;;2094095;28;20499;-73
2023/09/12 06:12:43;;;;;;;44.85;21.83;;;;;;;;;;2091269;28;20134;-72
2023/09/12 06:14:04;;;;;;;47.17;22.35;;;;;;;;;;2085911;28;20044;-75
2023/09/12 06:15:25;;;;;;;45.25;23.33;;;;;;;;;;2083700;28;20045;-73
2023/09/12 06:16:45;;;;;;;47.67;21.52;;;;;;;;;;2085056;28;20068;-72
2023/09/12 06:18:06;;;;;;;46.70;21.15;;;;;;;;;;2092363;28;20033;-73
2023/09/12 06:19:27;;;;;;;43.30;20.58;;;;;;;;;;2095754;28;20048;-73
2023/09/12 06:20:49;;;;;;;44.95;22.60;;;;;;;;;;2092975;28;20082;-73
2023/09/12 06:22:09;;;;;;;43.72;20.90;;;;;;;;;;2090771;28;20135;-72
2023/09/12 06:23:30;;;;;;;44.30;21.48;;;;;;;;;;2083244;28;21526;-73
2023/09/12 06:24:52;;;;;;;45.03;21.70;;;;;;;;;;2090517;28;20484;-73
2023/09/12 06:26:13;;;;;;;44.15;23.67;;;;;;;;;;2086421;28;20032;-73
2023/09/12 06:27:34;;;;;;;45.60;21.45;;;;;;;;;;2092811;28;20472;-73
2023/09/12 06:28:54;;;;;;;41.90;21.15;;;;;;;;;;2095562;28;20104;-73
2023/09/12 06:30:15;;;;;;;46.25;21.08;;;;;;;;;;2094366;28;20399;-73
2023/09/12 06:31:36;;;;;;;44.53;22.77;;;;;;;;;;2094256;28;20396;-73
2023/09/12 06:32:57;;;;;;;46.15;22.58;;;;;;;;;;2096712;28;20032;-72
2023/09/12 06:34:18;;;;;;;46.70;22.50;;;;;;;;;;2094706;28;20389;-73
2023/09/12 06:35:39;;;;;;;41.15;20.27;;;;;;;;;;2095811;28;20113;-73
2023/09/12 06:37:00;;;;;;;44.25;21.88;;;;;;;;;;2085664;28;20436;-73
2023/09/12 06:38:22;;;;;;;43.90;21.98;;;;;;;;;;2092786;28;20044;-73
2023/09/12 06:39:43;;;;;;;41.88;21.02;;;;;;;;;;2098309;28;20037;-74
2023/09/12 06:41:04;;;;;;;44.47;22.15;;;;;;;;;;2098135;28;20036;-76
2023/09/12 06:42:24;;;;;;;46.25;21.65;;;;;;;;;;2088168;28;20458;-76
2023/09/12 06:43:45;;;;;;;44.65;21.48;;;;;;;;;;2088165;28;20037;-77
2023/09/12 06:45:06;;;;;;;39.55;20.45;;;;;;;;;;2095550;28;20032;-75
2023/09/12 06:46:27;;;;;;;40.33;20.40;;;;;;;;;;2093222;28;20040;-77
2023/09/12 06:47:48;;;;;;;39.95;21.38;;;;;;;;;;2089947;28;20039;-77
2023/09/12 06:49:09;;;;;;;46.70;21.77;;;;;;;;;;2089247;28;20070;-77
2023/09/12 06:50:30;;;;;;;44.00;20.50;;;;;;;;;;2088674;28;20029;-78
2023/09/12 06:51:51;;;;;;;41.05;21.35;;;;;;;;;;2079017;28;20401;-78
2023/09/12 06:53:12;;;;;;;43.95;21.58;;;;;;;;;;2081970;28;20029;-78
2023/09/12 06:54:33;;;;;;;40.72;21.75;;;;;;;;;;2087359;28;20144;-77
2023/09/12 06:55:57;;;;;;;40.27;21.33;;;;;;;;;;2095920;28;20036;-78
2023/09/12 06:57:17;;;;;;;38.85;20.98;;;;;;;;;;2090169;28;20025;-78
2023/09/12 06:58:38;;;;;;;41.75;23.25;;;;;;;;;;2088675;28;20029;-77
2023/09/12 06:59:59;;;;;;;42.75;21.70;;;;;;;;;;2087082;28;20025;-77
2023/09/12 07:01:20;;;;;;;42.55;21.05;;;;;;;;;;2095091;28;20024;-78
2023/09/12 07:02:42;;;;;;;40.67;20.48;;;;;;;;;;2089655;28;20400;-76
2023/09/12 07:04:03;;;;;;;41.25;21.50;;;;;;;;;;2095292;28;20029;-77
2023/09/12 07:05:24;;;;;;;41.40;21.80;;;;;;;;;;2097649;28;20035;-77
2023/09/12 07:06:45;;;;;;;40.05;22.35;;;;;;;;;;2098861;28;20107;-77
2023/09/12 07:08:06;;;;;;;45.38;21.77;;;;;;;;;;2088543;28;20561;-78
2023/09/12 07:09:27;;;;;;;47.25;22.85;;;;;;;;;;2087256;28;20037;-77
2023/09/12 07:10:48;;;;;;;42.90;22.02;;;;;;;;;;2092510;28;20025;-78
2023/09/12 07:12:09;;;;;;;47.17;21.83;;;;;;;;;;2097588;28;20464;-78
2023/09/12 07:13:31;;;;;;;44.33;22.45;;;;;;;;;;2089296;28;20033;-77
2023/09/12 07:14:52;;;;;;;44.05;20.65;;;;;;;;;;2084896;28;20476;-77
2023/09/12 07:16:13;;;;;;;46.63;22.77;;;;;;;;;;2093911;28;20369;-78
2023/09/12 07:17:33;;;;;;;49.10;23.08;;;;;;;;;;2096634;28;20040;-78
2023/09/12 07:18:54;;;;;;;44.00;22.45;;;;;;;;;;2096089;28;20085;-78
2023/09/12 07:20:17;;;;;;;44.00;23.15;;;;;;;;;;2077104;28;20358;-77
2023/09/12 07:21:38;;;;;;;49.90;23.52;;;;;;;;;;2087435;28;20033;-77
2023/09/12 07:22:59;;;;;;;50.55;24.17;;;;;;;;;;2080382;28;20457;-77
2023/09/12 07:24:20;;;;;;;51.63;24.27;;;;;;;;;;2079438;28;20038;-78
2023/09/12 07:25:41;;;;;;;51.08;23.45;;;;;;;;;;2086648;28;20480;-77
2023/09/12 07:27:02;;;;;;;44.00;21.20;;;;;;;;;;2089011;28;20033;-78
2023/09/12 07:28:23;;;;;;;46.90;21.93;;;;;;;;;;2080957;28;20041;-77
2023/09/12 07:29:44;;;;;;;53.03;22.90;;;;;;;;;;2086892;28;20439;-77
2023/09/12 07:31:05;;;;;;;47.45;22.88;;;;;;;;;;2090488;28;20538;-77
2023/09/12 07:32:27;;;;;;;55.80;24.23;;;;;;;;;;2081233;28;20030;-77
2023/09/12 07:33:48;;;;;;;52.70;22.95;;;;;;;;;;2095954;28;20045;-76
2023/09/12 07:35:09;;;;;;;50.13;23.02;;;;;;;;;;2088622;28;20017;-75
2023/09/12 07:36:30;;;;;;;59.08;24.13;;;;;;;;;;2094451;28;20033;-76
2023/09/12 07:37:50;;;;;;;44.17;22.60;;;;;;;;;;2080277;28;20037;-75
2023/09/12 07:39:11;;;;;;;53.75;24.23;;;;;;;;;;2085682;28;20037;-75
2023/09/12 07:40:32;;;;;;;48.25;23.42;;;;;;;;;;2080633;28;20037;-75
2023/09/12 07:41:53;;;;;;;48.25;22.23;;;;;;;;;;2085931;28;20040;-75
2023/09/12 07:43:14;;;;;;;48.13;22.05;;;;;;;;;;2090136;28;20083;-76
2023/09/12 07:44:35;;;;;;;51.23;22.37;;;;;;;;;;2081622;28;20041;-76
2023/09/12 07:45:57;;;;;;;50.17;22.75;;;;;;;;;;2088865;28;20399;-77
2023/09/12 07:47:18;;;;;;;46.63;21.80;;;;;;;;;;2097820;28;20032;-78
2023/09/12 07:48:39;;;;;;;50.35;23.65;;;;;;;;;;2088334;28;20076;-77
2023/09/12 07:50:00;;;;;;;43.13;21.08;;;;;;;;;;2092433;28;20041;-78
2023/09/12 07:51:22;;;;;;;44.65;23.30;;;;;;;;;;2080594;28;20022;-76
2023/09/12 07:52:43;;;;;;;47.22;22.88;;;;;;;;;;2076143;28;20033;-77
2023/09/12 07:54:04;;;;;;;47.40;22.35;;;;;;;;;;2095229;28;20029;-77